Time;durP1;ratioP1;P1;durP2;ratioP2;P2;SDS_P1;SDS_P2;PMS_P1;PMS_P2;Temp;Humidity;BMP_temperature;BMP_pressure;BME280_temperature;BME280_humidity;BME280_pressure;Samples;Min_cycle;Max_cycle;Signal;HPM_P1;HPM_P2
2022/05/18 00:00:12;;;;;;;84.35;54.00;;;23.70;56.70;;;;;;4927458;28;89922;-43
2022/05/18 00:02:38;;;;;;;84.18;53.88;;;23.70;56.80;;;;;;4925008;28;90562;-44
2022/05/18 00:05:05;;;;;;;84.47;53.70;;;23.70;56.50;;;;;;4928065;28;89687;-43
2022/05/18 00:07:31;;;;;;;83.38;53.80;;;23.70;56.30;;;;;;4918435;28;90171;-43
2022/05/18 00:09:57;;;;;;;83.45;53.95;;;23.70;56.60;;;;;;4918621;28;91027;-43
2022/05/18 00:12:23;;;;;;;83.72;54.05;;;23.70;56.80;;;;;;4923636;28;92468;-43
2022/05/18 00:14:49;;;;;;;84.55;53.90;;;23.70;56.50;;;;;;4923087;28;92010;-44
2022/05/18 00:17:15;;;;;;;83.88;54.03;;;23.70;56.60;;;;;;4929911;28;90257;-43
2022/05/18 00:19:40;;;;;;;84.47;54.35;;;23.80;56.50;;;;;;4915421;28;92514;-43
2022/05/18 00:22:06;;;;;;;83.57;54.05;;;23.80;56.50;;;;;;4918926;28;92020;-41
2022/05/18 00:24:32;;;;;;;84.85;54.17;;;23.80;56.50;;;;;;4915039;28;89953;-40
2022/05/18 00:26:57;;;;;;;83.03;53.85;;;23.80;56.60;;;;;;4929803;28;89840;-44
2022/05/18 00:29:23;;;;;;;86.18;54.05;;;23.80;56.60;;;;;;4920140;28;90609;-43
2022/05/18 00:31:49;;;;;;;83.72;54.00;;;23.80;56.40;;;;;;4927064;28;90840;-45
2022/05/18 00:34:16;;;;;;;83.47;53.83;;;23.70;56.40;;;;;;4924465;28;90191;-40
2022/05/18 00:36:42;;;;;;;83.47;54.03;;;23.70;56.30;;;;;;4930781;28;90377;-42
2022/05/18 00:39:08;;;;;;;82.93;53.67;;;23.80;56.40;;;;;;4918230;28;89661;-42
2022/05/18 00:41:34;;;;;;;83.43;53.90;;;23.70;56.30;;;;;;4927049;28;89700;-43
2022/05/18 00:44:00;;;;;;;84.30;53.90;;;23.80;56.40;;;;;;4925074;28;91080;-42
2022/05/18 00:46:25;;;;;;;84.18;53.97;;;23.80;56.40;;;;;;4928838;28;91181;-41
2022/05/18 00:48:53;;;;;;;82.75;53.67;;;23.70;56.50;;;;;;4928104;28;90191;-43
2022/05/18 00:51:51;;;;;;;82.93;53.53;;;23.70;56.50;;;;;;4918790;28;90166;-41
2022/05/18 00:54:26;;;;;;;83.40;53.60;;;23.70;56.60;;;;;;4916009;28;90991;-43
2022/05/18 00:57:08;;;;;;;83.50;53.78;;;23.70;56.50;;;;;;4930927;28;90154;-47
2022/05/18 00:59:45;;;;;;;83.82;53.63;;;23.70;56.60;;;;;;4925056;28;90280;-42
2022/05/18 01:02:12;;;;;;;83.80;53.67;;;23.70;56.50;;;;;;4928326;28;92949;-40
2022/05/18 01:04:40;;;;;;;83.22;53.65;;;23.70;56.50;;;;;;4925620;28;88925;-46
2022/05/18 01:07:13;;;;;;;84.07;53.53;;;23.70;56.60;;;;;;4926763;28;90988;-45
2022/05/18 01:09:44;;;;;;;83.38;53.83;;;23.70;56.60;;;;;;4917821;28;91629;-44
2022/05/18 01:12:12;;;;;;;83.88;53.85;;;23.70;56.70;;;;;;4923656;28;94248;-45
2022/05/18 01:14:43;;;;;;;83.00;53.50;;;23.70;56.60;;;;;;4921667;28;90297;-44
2022/05/18 01:17:11;;;;;;;85.33;53.77;;;23.70;56.70;;;;;;4934176;28;90564;-44
2022/05/18 01:19:44;;;;;;;83.03;53.65;;;23.70;56.70;;;;;;4918128;28;91181;-41
2022/05/18 01:22:22;;;;;;;82.85;53.55;;;23.70;56.70;;;;;;4927270;28;89621;-43
2022/05/18 01:24:58;;;;;;;83.00;53.63;;;23.70;56.80;;;;;;4916841;28;90991;-46
2022/05/18 01:27:23;;;;;;;82.63;53.58;;;23.70;56.90;;;;;;4923958;28;90844;-42
2022/05/18 01:29:50;;;;;;;84.40;53.75;;;23.70;56.90;;;;;;4920952;28;90441;-44
2022/05/18 01:32:16;;;;;;;83.07;53.63;;;23.60;56.80;;;;;;4921660;28;90101;-42
2022/05/18 01:34:42;;;;;;;82.90;53.45;;;23.70;57.00;;;;;;4917771;28;90504;-42
2022/05/18 01:37:13;;;;;;;84.13;53.78;;;23.60;57.00;;;;;;4920324;28;90684;-44
2022/05/18 01:39:47;;;;;;;83.30;53.60;;;23.60;56.90;;;;;;4922699;28;89808;-43
2022/05/18 01:42:46;;;;;;;83.70;53.83;;;23.60;57.00;;;;;;4926810;28;89882;-42
2022/05/18 01:45:12;;;;;;;83.43;53.60;;;23.60;57.10;;;;;;4921264;28;90206;-42
2022/05/18 01:47:40;;;;;;;83.50;53.53;;;23.60;57.20;;;;;;4928973;28;89742;-40
2022/05/18 01:50:10;;;;;;;83.03;53.55;;;23.60;57.10;;;;;;4913028;28;90036;-42
2022/05/18 01:52:36;;;;;;;83.68;53.58;;;23.60;57.10;;;;;;4922126;28;90179;-47
2022/05/18 01:55:03;;;;;;;83.85;53.83;;;23.60;57.20;;;;;;4920615;28;90833;-46
2022/05/18 01:57:28;;;;;;;83.40;53.75;;;23.60;57.20;;;;;;4934132;28;89973;-41
2022/05/18 01:59:54;;;;;;;83.40;53.50;;;23.60;57.20;;;;;;4936677;28;92544;-43
2022/05/18 02:02:19;;;;;;;83.85;53.85;;;23.60;57.20;;;;;;4916047;28;91031;-43
2022/05/18 02:04:45;;;;;;;84.07;53.65;;;23.60;57.30;;;;;;4924322;28;90204;-43
2022/05/18 02:07:12;;;;;;;82.93;53.65;;;23.60;57.20;;;;;;4931409;28;90804;-42
2022/05/18 02:09:38;;;;;;;81.95;53.30;;;23.60;57.30;;;;;;4920697;28;89497;-42
2022/05/18 02:12:07;;;;;;;82.15;53.47;;;23.60;57.30;;;;;;4923988;28;90322;-41
2022/05/18 02:14:33;;;;;;;82.50;53.65;;;23.50;57.40;;;;;;4924796;28;90052;-44
2022/05/18 02:16:58;;;;;;;82.63;53.63;;;23.50;57.40;;;;;;4927414;28;91201;-47
2022/05/18 02:19:24;;;;;;;83.05;53.38;;;23.50;57.40;;;;;;4919272;28;88960;-42
2022/05/18 02:21:50;;;;;;;81.95;53.45;;;23.50;57.40;;;;;;4915783;28;96759;-45
2022/05/18 02:24:16;;;;;;;82.97;53.40;;;23.50;57.40;;;;;;4919517;28;91036;-41
2022/05/18 02:26:42;;;;;;;82.35;53.55;;;23.50;57.40;;;;;;4927581;28;91244;-43
2022/05/18 02:29:08;;;;;;;82.35;53.50;;;23.50;57.40;;;;;;4927043;28;89830;-41
2022/05/18 02:31:34;;;;;;;83.63;53.60;;;23.50;57.60;;;;;;4921135;28;96198;-41
2022/05/18 02:34:00;;;;;;;82.68;53.58;;;23.50;57.60;;;;;;4928491;28;90101;-43
2022/05/18 02:36:26;;;;;;;82.22;53.22;;;23.50;57.50;;;;;;4925520;28;89904;-47
2022/05/18 02:38:52;;;;;;;82.55;53.50;;;23.50;57.60;;;;;;4924860;28;90196;-43
2022/05/18 02:41:18;;;;;;;82.45;53.55;;;23.50;57.60;;;;;;4924169;28;91023;-45
2022/05/18 02:43:44;;;;;;;82.22;53.63;;;23.50;57.70;;;;;;4928291;28;89662;-43
2022/05/18 02:46:20;;;;;;;83.13;53.47;;;23.50;57.70;;;;;;4918989;28;90309;-41
2022/05/18 02:48:47;;;;;;;82.57;53.40;;;23.40;57.80;;;;;;4931072;28;90814;-43
2022/05/18 02:51:14;;;;;;;83.25;53.88;;;23.40;57.70;;;;;;4911813;28;98783;-42
2022/05/18 02:53:40;;;;;;;82.47;53.53;;;23.40;57.80;;;;;;4923721;28;91325;-42
2022/05/18 02:56:10;;;;;;;82.35;53.45;;;23.40;57.80;;;;;;4927136;28;89941;-41
2022/05/18 02:58:48;;;;;;;83.93;53.40;;;23.40;57.90;;;;;;4941129;28;90072;-47
2022/05/18 03:01:22;;;;;;;82.20;53.47;;;23.40;57.90;;;;;;4927231;28;90279;-43
2022/05/18 03:03:49;;;;;;;83.80;53.63;;;23.40;58.00;;;;;;4935405;28;91215;-42
2022/05/18 03:06:17;;;;;;;82.65;53.72;;;23.40;57.90;;;;;;4932280;28;90052;-42
2022/05/18 03:08:44;;;;;;;84.57;53.53;;;23.30;57.90;;;;;;4926624;28;89785;-42
2022/05/18 03:11:10;;;;;;;83.43;53.30;;;23.40;58.00;;;;;;4923199;28;94628;-43
2022/05/18 03:13:36;;;;;;;82.53;53.33;;;23.40;57.90;;;;;;4930287;28;90515;-44
2022/05/18 03:16:03;;;;;;;83.07;53.35;;;23.40;58.10;;;;;;4932892;28;90497;-41
2022/05/18 03:18:28;;;;;;;82.38;53.13;;;23.40;58.10;;;;;;4931442;28;90078;-47
2022/05/18 03:23:39;;;;;;;81.88;53.33;;;23.40;58.10;;;;;;4925454;28;90825;-44
2022/05/18 03:26:08;;;;;;;81.65;53.28;;;23.30;58.10;;;;;;4925326;28;90397;-43
2022/05/18 03:28:35;;;;;;;82.05;53.53;;;23.30;58.20;;;;;;4929935;28;89980;-41
2022/05/18 03:31:01;;;;;;;82.13;53.38;;;23.30;58.20;;;;;;4917810;28;90177;-42
2022/05/18 03:33:27;;;;;;;83.38;53.53;;;23.30;58.20;;;;;;4931945;28;89957;-41
2022/05/18 03:35:53;;;;;;;82.43;53.38;;;23.30;58.20;;;;;;4919948;28;89736;-42
2022/05/18 03:38:20;;;;;;;82.82;53.15;;;23.30;58.10;;;;;;4919760;28;90432;-42
2022/05/18 03:40:46;;;;;;;82.95;53.58;;;23.20;58.20;;;;;;4919892;28;94791;-42
2022/05/18 03:43:12;;;;;;;81.55;53.33;;;23.20;58.20;;;;;;4925954;28;92784;-42
2022/05/18 03:45:38;;;;;;;84.03;53.50;;;23.20;58.10;;;;;;4928002;28;90090;-42
2022/05/18 03:48:06;;;;;;;84.50;53.50;;;23.20;58.30;;;;;;4926585;28;90426;-44
2022/05/18 03:50:32;;;;;;;83.50;53.47;;;23.20;58.40;;;;;;4920844;28;90413;-43
2022/05/18 03:53:00;;;;;;;82.15;53.42;;;23.20;58.50;;;;;;4919172;28;92064;-42
2022/05/18 03:55:26;;;;;;;81.55;53.20;;;23.20;58.50;;;;;;4918510;28;91101;-42
2022/05/18 03:57:52;;;;;;;82.43;53.63;;;23.20;58.50;;;;;;4924583;28;89171;-42
2022/05/18 04:00:19;;;;;;;83.50;53.55;;;23.20;58.50;;;;;;4924615;28;90813;-44
2022/05/18 04:02:47;;;;;;;82.95;53.35;;;23.20;58.60;;;;;;4927669;28;91427;-44
2022/05/18 04:05:15;;;;;;;83.18;53.42;;;23.10;58.60;;;;;;4930168;28;92604;-43
2022/05/18 04:07:40;;;;;;;81.80;53.47;;;23.10;58.60;;;;;;4926689;28;97815;-44
2022/05/18 04:10:07;;;;;;;82.40;53.65;;;23.10;59.30;;;;;;4921892;28;90150;-45
2022/05/18 04:12:34;;;;;;;83.80;53.17;;;23.10;58.70;;;;;;4926650;28;92415;-44
2022/05/18 04:15:00;;;;;;;81.22;53.33;;;23.10;58.80;;;;;;4923269;28;90947;-43
2022/05/18 04:17:26;;;;;;;82.38;53.30;;;23.10;58.60;;;;;;4922583;28;89970;-41
2022/05/18 04:19:53;;;;;;;81.40;53.05;;;23.10;58.60;;;;;;4925053;28;90479;-45
2022/05/18 04:22:20;;;;;;;82.00;53.25;;;23.10;58.80;;;;;;4918508;28;89956;-43
2022/05/18 04:24:45;;;;;;;81.85;53.33;;;23.10;58.80;;;;;;4925277;28;90614;-43
2022/05/18 04:27:11;;;;;;;82.32;53.15;;;23.10;58.70;;;;;;4928611;28;90102;-43
2022/05/18 04:29:37;;;;;;;81.93;53.22;;;23.10;58.90;;;;;;4926977;28;90990;-45
2022/05/18 04:32:05;;;;;;;82.65;53.45;;;23.10;58.90;;;;;;4918924;28;91082;-42
2022/05/18 04:34:30;;;;;;;81.72;53.47;;;23.10;58.80;;;;;;4929964;28;90127;-45
2022/05/18 04:36:56;;;;;;;82.60;53.40;;;23.10;58.80;;;;;;4923862;28;90028;-42
2022/05/18 04:39:22;;;;;;;83.85;53.55;;;23.10;59.60;;;;;;4922695;28;91193;-45
2022/05/18 04:41:47;;;;;;;82.50;53.45;;;23.00;59.00;;;;;;4912680;28;90156;-42
2022/05/18 04:44:13;;;;;;;82.82;53.55;;;23.10;59.00;;;;;;4914990;28;91009;-41
2022/05/18 04:46:40;;;;;;;81.35;53.22;;;23.00;59.00;;;;;;4923213;28;89219;-42
2022/05/18 04:49:06;;;;;;;82.07;53.03;;;23.10;59.10;;;;;;4913530;28;90283;-46
2022/05/18 04:51:32;;;;;;;82.35;53.55;;;23.00;59.20;;;;;;4909865;28;91812;-42
2022/05/18 04:53:57;;;;;;;81.88;53.28;;;23.00;59.10;;;;;;4916840;28;91854;-43
2022/05/18 04:56:24;;;;;;;82.28;53.33;;;23.00;59.00;;;;;;4918538;28;91191;-40
2022/05/18 04:58:50;;;;;;;82.50;53.42;;;23.00;59.10;;;;;;4925829;28;90282;-44
2022/05/18 05:01:16;;;;;;;82.20;53.45;;;23.00;59.00;;;;;;4915424;28;90337;-41
2022/05/18 05:03:42;;;;;;;82.03;53.50;;;23.10;59.00;;;;;;4915483;28;89893;-43
2022/05/18 05:06:08;;;;;;;89.75;53.65;;;23.10;59.00;;;;;;4920199;28;90630;-42
2022/05/18 05:08:35;;;;;;;82.25;53.20;;;23.00;59.00;;;;;;4913409;28;90155;-42
2022/05/18 05:11:01;;;;;;;82.72;53.35;;;23.10;59.10;;;;;;4918860;28;89129;-41
2022/05/18 05:13:27;;;;;;;83.35;52.95;;;23.00;59.00;;;;;;4925115;28;89979;-44
2022/05/18 05:16:07;;;;;;;81.95;53.33;;;23.00;59.20;;;;;;4930232;28;90002;-45
2022/05/18 05:18:33;;;;;;;81.72;53.20;;;23.00;59.20;;;;;;4919673;28;92834;-41
2022/05/18 05:20:59;;;;;;;82.63;53.60;;;23.00;59.10;;;;;;4910171;28;90959;-42
2022/05/18 05:23:26;;;;;;;81.65;53.10;;;23.10;59.10;;;;;;4906815;28;90223;-43
2022/05/18 05:25:52;;;;;;;83.85;54.00;;;23.10;59.40;;;;;;4926975;28;90308;-42
2022/05/18 05:28:19;;;;;;;83.40;53.92;;;23.10;59.10;;;;;;4917895;28;92425;-42
2022/05/18 05:30:44;;;;;;;88.50;54.10;;;23.10;59.40;;;;;;4922663;28;91749;-43
2022/05/18 05:33:11;;;;;;;87.70;54.40;;;23.00;59.60;;;;;;4926015;28;90338;-43
2022/05/18 05:35:40;;;;;;;86.93;54.08;;;23.10;59.80;;;;;;4927647;28;89486;-43
2022/05/18 05:38:07;;;;;;;89.22;54.17;;;23.10;59.80;;;;;;4911813;28;90534;-43
2022/05/18 05:40:33;;;;;;;88.95;54.42;;;23.10;59.90;;;;;;4919849;28;90556;-44
2022/05/18 05:42:58;;;;;;;84.80;54.40;;;23.10;59.90;;;;;;4920312;28;91259;-41
2022/05/18 05:45:24;;;;;;;84.28;54.45;;;23.10;59.60;;;;;;4928886;28;90079;-45
2022/05/18 05:47:50;;;;;;;85.18;54.17;;;23.10;59.40;;;;;;4930286;28;90201;-44
2022/05/18 05:50:16;;;;;;;83.20;54.03;;;23.10;59.50;;;;;;4921533;28;90281;-41
2022/05/18 05:52:41;;;;;;;87.50;54.22;;;23.10;59.40;;;;;;4918300;28;91640;-41
2022/05/18 05:55:07;;;;;;;85.75;53.85;;;23.10;59.10;;;;;;4923955;28;90512;-42
2022/05/18 05:57:34;;;;;;;90.30;54.20;;;23.10;59.10;;;;;;4922164;28;90018;-44
2022/05/18 06:00:02;;;;;;;87.57;54.08;;;23.10;59.00;;;;;;4925280;28;89515;-42
2022/05/18 06:02:28;;;;;;;84.70;54.03;;;23.10;58.80;;;;;;4925226;28;89970;-40
2022/05/18 06:04:54;;;;;;;82.25;53.58;;;23.10;59.20;;;;;;4924931;28;93186;-44
2022/05/18 06:07:20;;;;;;;83.55;53.90;;;23.10;58.80;;;;;;4914385;28;91392;-43
2022/05/18 06:09:46;;;;;;;85.38;53.97;;;23.20;59.00;;;;;;4910687;28;91445;-43
2022/05/18 06:12:11;;;;;;;87.70;54.08;;;23.20;59.40;;;;;;4918409;28;90102;-43
2022/05/18 06:14:37;;;;;;;85.63;54.45;;;23.30;59.50;;;;;;4915454;28;95451;-41
2022/05/18 06:17:03;;;;;;;84.25;54.33;;;23.20;58.20;;;;;;4919626;28;90216;-41
2022/05/18 06:19:31;;;;;;;84.93;54.17;;;23.20;58.50;;;;;;4923443;28;90657;-40
2022/05/18 06:21:57;;;;;;;83.28;53.72;;;23.20;58.20;;;;;;4919074;28;91775;-44
2022/05/18 06:24:23;;;;;;;85.55;53.78;;;22.90;57.50;;;;;;4909599;28;92014;-44
2022/05/18 06:26:49;;;;;;;87.15;53.63;;;22.60;57.50;;;;;;4923173;28;90159;-42
2022/05/18 06:29:14;;;;;;;82.18;53.33;;;22.30;58.30;;;;;;4918471;28;94933;-41
2022/05/18 06:31:40;;;;;;;84.28;53.53;;;22.40;58.10;;;;;;4924267;28;90951;-41
2022/05/18 06:34:08;;;;;;;87.95;53.72;;;22.50;58.00;;;;;;4923980;28;89688;-42
2022/05/18 06:36:34;;;;;;;83.05;53.40;;;22.20;57.00;;;;;;4927539;28;94967;-42
2022/05/18 06:39:00;;;;;;;84.35;53.55;;;22.10;58.40;;;;;;4914735;28;91573;-42
2022/05/18 06:41:27;;;;;;;83.97;53.30;;;22.10;57.50;;;;;;4924110;28;90906;-41
2022/05/18 06:44:00;;;;;;;82.18;53.08;;;22.00;59.20;;;;;;4918160;28;90135;-42
2022/05/18 06:46:27;;;;;;;83.40;53.30;;;22.10;58.50;;;;;;4925525;28;96268;-42
2022/05/18 06:48:55;;;;;;;85.80;53.40;;;22.20;57.60;;;;;;4931328;28;89391;-42
2022/05/18 06:51:24;;;;;;;84.32;53.65;;;22.00;58.90;;;;;;4921604;28;96086;-43
2022/05/18 06:53:51;;;;;;;83.20;53.60;;;22.20;60.00;;;;;;4914161;28;94203;-42
2022/05/18 06:56:19;;;;;;;85.70;54.30;;;22.50;58.90;;;;;;4922420;28;91321;-40
2022/05/18 06:58:50;;;;;;;87.05;54.08;;;22.70;58.50;;;;;;4928862;28;90424;-43
2022/05/18 07:01:16;;;;;;;86.03;54.00;;;22.80;58.10;;;;;;4928575;28;90789;-41
2022/05/18 07:03:46;;;;;;;84.15;53.72;;;22.90;57.80;;;;;;4941192;28;90036;-42
2022/05/18 07:06:14;;;;;;;84.15;53.95;;;23.10;57.20;;;;;;4928649;28;89937;-44
2022/05/18 07:08:41;;;;;;;86.25;53.67;;;23.20;57.10;;;;;;4924915;28;90211;-41
2022/05/18 07:11:07;;;;;;;88.45;53.78;;;23.20;56.80;;;;;;4927295;28;90814;-42
2022/05/18 07:13:34;;;;;;;87.03;53.97;;;23.30;56.60;;;;;;4926356;28;89950;-43
2022/05/18 07:16:01;;;;;;;84.22;53.92;;;23.40;56.30;;;;;;4925465;28;90362;-42
2022/05/18 07:18:30;;;;;;;85.00;53.95;;;23.40;56.00;;;;;;4930671;28;89816;-42
2022/05/18 07:20:58;;;;;;;87.78;54.50;;;23.50;55.80;;;;;;4923905;28;96173;-41
2022/05/18 07:23:25;;;;;;;83.43;54.08;;;23.60;55.90;;;;;;4913931;28;90804;-39
2022/05/18 07:25:53;;;;;;;84.40;53.78;;;23.60;55.80;;;;;;4925293;28;90743;-40
2022/05/18 07:28:18;;;;;;;86.05;54.15;;;23.70;55.60;;;;;;4922361;28;91886;-43
2022/05/18 07:30:44;;;;;;;85.07;53.90;;;23.70;55.00;;;;;;4922131;28;97609;-40
2022/05/18 07:33:10;;;;;;;85.05;53.92;;;23.70;54.60;;;;;;4915839;28;89472;-43
2022/05/18 07:35:36;;;;;;;83.07;53.78;;;23.80;54.50;;;;;;4918172;28;90291;-41
2022/05/18 07:38:02;;;;;;;87.97;54.28;;;23.80;55.00;;;;;;4922004;28;89668;-41
2022/05/18 07:40:28;;;;;;;86.72;54.15;;;23.90;55.00;;;;;;4911506;28;91406;-42
2022/05/18 07:42:56;;;;;;;87.75;54.33;;;23.90;54.80;;;;;;4919181;28;90565;-45
2022/05/18 07:45:23;;;;;;;85.07;53.90;;;24.00;55.40;;;;;;4927242;28;92285;-44
2022/05/18 07:47:51;;;;;;;85.82;54.47;;;24.10;54.70;;;;;;4917439;28;90332;-39
2022/05/18 07:50:17;;;;;;;87.35;54.47;;;24.00;54.50;;;;;;4920572;28;90759;-40
2022/05/18 07:52:43;;;;;;;85.20;54.33;;;24.10;54.30;;;;;;4915149;28;90504;-39
2022/05/18 07:55:09;;;;;;;86.43;54.17;;;24.10;54.20;;;;;;4928057;28;91559;-38
2022/05/18 07:57:34;;;;;;;86.53;54.20;;;24.20;53.40;;;;;;4936886;28;89921;-41
2022/05/18 08:00:02;;;;;;;87.18;54.67;;;24.20;52.50;;;;;;4927816;28;89948;-40
2022/05/18 08:02:29;;;;;;;84.72;53.80;;;24.30;52.10;;;;;;4925797;28;89166;-40
2022/05/18 08:04:54;;;;;;;84.75;54.10;;;24.30;51.20;;;;;;4928847;28;89877;-38
2022/05/18 08:07:20;;;;;;;89.22;54.35;;;24.30;50.40;;;;;;4920101;28;91699;-42
2022/05/18 08:15:15;;;;;;;85.85;54.03;;;24.40;49.40;;;;;;4911650;28;94126;-40
2022/05/18 08:17:44;;;;;;;83.43;53.80;;;24.40;48.60;;;;;;4935332;28;91459;-39
2022/05/18 08:20:16;;;;;;;85.05;53.90;;;24.40;48.30;;;;;;4917538;28;91323;-40
2022/05/18 08:22:41;;;;;;;84.93;53.97;;;24.40;48.20;;;;;;4912648;28;90405;-44
2022/05/18 08:25:09;;;;;;;84.00;53.75;;;24.40;47.40;;;;;;4915584;28;90848;-39
2022/05/18 08:27:43;;;;;;;87.60;54.65;;;24.40;47.50;;;;;;4920183;28;90707;-39
2022/05/18 08:30:10;;;;;;;87.63;54.10;;;24.40;47.10;;;;;;4924324;28;89677;-42
2022/05/18 08:32:36;;;;;;;89.28;54.42;;;24.50;46.60;;;;;;4929524;28;89924;-40
2022/05/18 08:35:01;;;;;;;85.00;54.10;;;24.50;46.20;;;;;;4934661;28;92218;-42
2022/05/18 08:37:27;;;;;;;87.38;54.20;;;24.50;46.00;;;;;;4930295;28;90315;-43
2022/05/18 08:39:53;;;;;;;84.20;54.10;;;24.50;46.20;;;;;;4918336;28;90113;-41
2022/05/18 08:42:20;;;;;;;84.25;53.97;;;24.50;45.80;;;;;;4922932;28;96249;-40
2022/05/18 08:44:47;;;;;;;86.38;54.30;;;24.50;45.40;;;;;;4926994;28;91586;-41
2022/05/18 08:47:35;;;;;;;84.25;53.78;;;24.60;45.60;;;;;;4925998;28;89947;-40
2022/05/18 08:50:05;;;;;;;85.57;54.03;;;24.60;45.30;;;;;;4926640;28;90234;-42
2022/05/18 08:52:59;;;;;;;84.20;54.05;;;24.70;45.50;;;;;;4916750;28;90333;-42
2022/05/18 08:55:38;;;;;;;85.78;54.33;;;24.70;45.60;;;;;;4910979;28;93739;-42
2022/05/18 08:58:10;;;;;;;86.60;54.40;;;24.70;45.70;;;;;;4916035;28;90163;-39
2022/05/18 09:00:40;;;;;;;86.28;54.63;;;24.70;46.30;;;;;;4917622;28;90881;-41
2022/05/18 09:03:11;;;;;;;86.25;54.33;;;24.70;46.20;;;;;;4921445;28;89997;-39
2022/05/18 09:05:44;;;;;;;84.68;54.15;;;24.80;46.00;;;;;;4919547;28;90881;-41
2022/05/18 09:08:25;;;;;;;85.40;54.50;;;24.80;46.30;;;;;;4927324;28;91714;-38
2022/05/18 09:11:14;;;;;;;85.85;54.60;;;24.80;46.30;;;;;;4921577;28;90961;-39
2022/05/18 09:13:40;;;;;;;86.20;54.72;;;24.90;46.40;;;;;;4922709;28;92004;-41
2022/05/18 09:16:40;;;;;;;85.65;54.70;;;25.00;46.00;;;;;;4913308;28;90129;-41
2022/05/18 09:19:29;;;;;;;86.28;54.83;;;25.10;46.00;;;;;;4931077;28;89898;-42
2022/05/18 09:22:13;;;;;;;87.80;55.08;;;25.20;46.20;;;;;;4917637;28;90361;-43
2022/05/18 09:25:06;;;;;;;87.82;55.15;;;25.20;45.30;;;;;;4919177;28;90404;-42
2022/05/18 09:27:45;;;;;;;88.03;55.05;;;25.30;45.60;;;;;;4926239;28;91157;-42
2022/05/18 09:30:33;;;;;;;86.38;55.20;;;25.40;45.50;;;;;;4930067;28;90863;-40
2022/05/18 09:33:16;;;;;;;87.22;55.00;;;25.50;45.10;;;;;;4920272;28;90444;-40
2022/05/18 09:35:47;;;;;;;87.82;55.50;;;25.60;45.30;;;;;;4927282;28;90331;-40
2022/05/18 09:38:33;;;;;;;87.22;55.22;;;25.60;45.20;;;;;;4926265;28;91619;-40
2022/05/18 09:41:03;;;;;;;86.65;55.05;;;25.70;45.00;;;;;;4926044;28;90618;-42
2022/05/18 09:43:46;;;;;;;88.55;55.42;;;25.70;45.10;;;;;;4923021;28;90514;-40
2022/05/18 09:46:15;;;;;;;87.43;55.38;;;25.60;45.20;;;;;;4925176;28;89432;-40
2022/05/18 09:48:55;;;;;;;87.03;55.10;;;25.50;45.50;;;;;;4919914;28;90957;-40
2022/05/18 09:51:22;;;;;;;89.18;55.33;;;25.40;45.40;;;;;;4918937;28;89862;-43
2022/05/18 09:53:49;;;;;;;87.07;54.85;;;25.30;45.70;;;;;;4908100;28;96055;-43
2022/05/18 09:56:26;;;;;;;85.32;54.92;;;25.40;45.90;;;;;;4920164;28;90903;-39
2022/05/18 09:58:55;;;;;;;88.03;55.15;;;25.40;45.60;;;;;;4915316;28;90558;-41
2022/05/18 10:07:28;;;;;;;88.55;55.35;;;25.60;45.70;;;;;;4923565;28;90468;-41
2022/05/18 10:10:11;;;;;;;87.82;55.33;;;25.50;45.20;;;;;;4918396;28;90714;-40
2022/05/18 10:12:48;;;;;;;95.95;55.58;;;25.40;45.40;;;;;;4926012;28;89877;-39
2022/05/18 10:15:25;;;;;;;87.07;55.33;;;25.40;45.80;;;;;;4923643;28;90499;-39
2022/05/18 10:18:00;;;;;;;86.10;55.00;;;25.60;45.70;;;;;;4924112;28;90136;-39
2022/05/18 10:20:33;;;;;;;87.20;55.13;;;25.60;45.60;;;;;;4923361;28;93327;-41
2022/05/18 10:23:00;;;;;;;87.60;54.78;;;25.60;45.40;;;;;;4915959;28;90985;-41
2022/05/18 10:25:26;;;;;;;85.82;54.83;;;25.50;45.50;;;;;;4919901;28;90321;-40
2022/05/18 10:27:52;;;;;;;86.07;54.88;;;25.30;45.60;;;;;;4915714;28;91467;-40
2022/05/18 10:30:34;;;;;;;85.65;54.70;;;25.20;45.90;;;;;;4928080;28;90643;-40
2022/05/18 10:33:18;;;;;;;87.05;54.85;;;25.20;46.60;;;;;;4928468;28;94191;-38
2022/05/18 10:35:51;;;;;;;88.50;54.88;;;25.30;46.20;;;;;;4926674;28;89837;-39
2022/05/18 10:38:20;;;;;;;88.32;54.85;;;25.30;46.00;;;;;;4927894;28;89373;-40
2022/05/18 10:40:46;;;;;;;85.30;54.55;;;25.30;45.80;;;;;;4916705;28;90867;-40
2022/05/18 10:43:22;;;;;;;87.90;54.88;;;25.30;46.00;;;;;;4918106;28;92743;-39
2022/05/18 10:45:56;;;;;;;86.82;54.85;;;25.40;46.00;;;;;;4917630;28;91381;-39
2022/05/18 10:48:24;;;;;;;86.47;54.72;;;25.40;45.80;;;;;;4929235;28;90499;-39
2022/05/18 10:51:01;;;;;;;87.63;54.75;;;25.40;46.20;;;;;;4928467;28;90069;-38
2022/05/18 10:53:33;;;;;;;86.95;54.85;;;25.40;46.70;;;;;;4916282;28;90540;-41
2022/05/18 10:56:08;;;;;;;85.07;54.58;;;25.40;45.60;;;;;;4923917;28;89916;-38
2022/05/18 10:59:05;;;;;;;89.05;54.90;;;25.40;45.90;;;;;;4925620;28;90103;-40
2022/05/18 11:01:42;;;;;;;86.57;54.58;;;25.40;46.00;;;;;;4928195;28;90239;-39
2022/05/18 11:04:07;;;;;;;85.53;54.83;;;25.40;46.10;;;;;;4931174;28;90182;-41
2022/05/18 11:06:39;;;;;;;86.97;54.65;;;25.40;45.60;;;;;;4922483;28;89688;-39
2022/05/18 11:09:15;;;;;;;85.35;54.67;;;25.50;45.50;;;;;;4923406;28;91273;-40
2022/05/18 11:12:06;;;;;;;86.32;54.55;;;25.50;45.50;;;;;;4915191;28;95889;-42
2022/05/18 11:14:50;;;;;;;87.53;54.45;;;25.50;45.80;;;;;;4919685;28;90919;-40
2022/05/18 11:17:37;;;;;;;84.93;54.25;;;25.50;45.90;;;;;;4925048;28;90142;-37
2022/05/18 11:20:25;;;;;;;85.05;54.35;;;25.40;45.90;;;;;;4927961;28;90786;-40
2022/05/18 11:23:06;;;;;;;87.70;54.63;;;25.40;45.60;;;;;;4923771;28;90001;-40
2022/05/18 11:26:09;;;;;;;89.13;54.45;;;25.40;46.00;;;;;;4926687;28;90265;-40
2022/05/18 11:28:49;;;;;;;91.68;54.63;;;25.40;46.10;;;;;;4926510;28;90624;-39
2022/05/18 11:31:33;;;;;;;84.78;54.45;;;25.40;45.60;;;;;;4924438;28;91993;-40
2022/05/18 11:34:10;;;;;;;85.78;54.47;;;25.40;45.30;;;;;;4920512;28;91488;-42
2022/05/18 11:37:03;;;;;;;87.72;54.85;;;25.40;45.30;;;;;;4919080;28;90603;-42
2022/05/18 11:39:44;;;;;;;86.30;54.65;;;25.40;45.70;;;;;;4926460;28;90478;-42
2022/05/18 11:42:31;;;;;;;86.97;54.58;;;25.50;46.10;;;;;;4921696;28;90075;-44
2022/05/18 11:45:06;;;;;;;85.93;54.50;;;25.50;45.80;;;;;;4931476;28;90020;-41
2022/05/18 11:48:12;;;;;;;86.75;54.55;;;25.50;45.40;;;;;;4922688;28;89750;-41
2022/05/18 11:51:02;;;;;;;87.63;54.63;;;25.50;45.20;;;;;;4931082;28;90230;-40
2022/05/18 11:53:48;;;;;;;84.93;54.63;;;25.60;45.30;;;;;;4921417;28;90805;-42
2022/05/18 11:56:45;;;;;;;85.63;54.53;;;25.50;45.30;;;;;;4923657;28;91362;-39
2022/05/18 12:02:01;;;;;;;86.20;54.65;;;25.50;45.50;;;;;;4913900;28;92821;-39
2022/05/18 12:04:43;;;;;;;86.18;54.70;;;25.40;45.40;;;;;;4926801;28;97480;-40
2022/05/18 12:07:29;;;;;;;87.05;54.85;;;25.60;46.20;;;;;;4917932;28;91490;-39
2022/05/18 12:10:01;;;;;;;86.00;55.05;;;25.60;46.60;;;;;;4916158;28;91939;-38
2022/05/18 12:12:47;;;;;;;96.13;55.15;;;25.70;45.40;;;;;;4917728;28;90855;-39
2022/05/18 12:15:49;;;;;;;85.50;54.58;;;25.70;45.80;;;;;;4924847;28;89878;-40
2022/05/18 12:18:34;;;;;;;84.63;54.60;;;25.80;45.30;;;;;;4922279;28;90584;-39
2022/05/18 12:21:31;;;;;;;87.95;54.60;;;25.60;45.40;;;;;;4929284;28;90099;-39
2022/05/18 12:24:00;;;;;;;85.95;54.88;;;25.60;45.20;;;;;;4914524;28;91860;-39
2022/05/18 12:26:27;;;;;;;86.47;54.85;;;25.60;45.00;;;;;;4929034;28;89133;-38
2022/05/18 12:28:54;;;;;;;88.88;55.33;;;25.70;44.80;;;;;;4927582;28;90388;-42
2022/05/18 12:31:20;;;;;;;88.43;55.13;;;25.80;44.80;;;;;;4929720;28;90628;-40
2022/05/18 12:34:16;;;;;;;86.63;54.83;;;25.80;44.80;;;;;;4924906;28;92112;-41
2022/05/18 12:36:57;;;;;;;88.95;55.05;;;25.80;44.80;;;;;;4926208;28;90167;-38
2022/05/18 12:39:23;;;;;;;86.55;54.78;;;25.80;44.60;;;;;;4920988;28;92695;-40
2022/05/18 12:41:54;;;;;;;85.93;54.92;;;25.80;44.60;;;;;;4934057;28;90729;-39
2022/05/18 12:44:45;;;;;;;89.97;54.88;;;25.80;44.80;;;;;;4913407;28;90161;-38
2022/05/18 12:47:26;;;;;;;88.20;55.13;;;25.80;44.80;;;;;;4925378;28;90042;-40
2022/05/18 12:50:01;;;;;;;91.55;55.30;;;25.80;45.50;;;;;;4930375;28;90699;-41
2022/05/18 12:52:29;;;;;;;88.15;54.95;;;25.90;45.20;;;;;;4920126;28;90096;-41
2022/05/18 12:55:00;;;;;;;89.60;55.20;;;25.80;44.70;;;;;;4919877;28;90507;-37
2022/05/18 12:57:40;;;;;;;87.57;54.90;;;25.80;44.80;;;;;;4920692;28;90080;-40
2022/05/18 13:00:44;;;;;;;86.97;54.97;;;25.80;44.50;;;;;;4924152;28;90823;-40
2022/05/18 13:03:10;;;;;;;88.07;54.85;;;25.80;45.00;;;;;;4924048;28;92104;-38